sensor_id;sensor_type;location;lat;lon;timestamp;P1;durP1;ratioP1;P2;durP2;ratioP2
48873;SDS011;66155;46.204;5.220;2023-06-14T00:03:54;8.07;;;3.97;;
48873;SDS011;66155;46.204;5.220;2023-06-14T00:08:56;5.72;;;4.03;;
48873;SDS011;66155;46.204;5.220;2023-06-14T00:13:56;7.10;;;4.30;;
48873;SDS011;66155;46.204;5.220;2023-06-14T00:18:57;6.65;;;3.75;;
48873;SDS011;66155;46.204;5.220;2023-06-14T00:23:58;5.33;;;3.50;;
48873;SDS011;66155;46.204;5.220;2023-06-14T00:28:59;5.65;;;4.03;;
48873;SDS011;66155;46.204;5.220;2023-06-14T00:33:59;8.77;;;3.73;;
48873;SDS011;66155;46.204;5.220;2023-06-14T00:39:02;4.35;;;3.40;;
48873;SDS011;66155;46.204;5.220;2023-06-14T00:44:04;5.03;;;3.90;;
48873;SDS011;66155;46.204;5.220;2023-06-14T00:49:04;4.65;;;3.05;;
48873;SDS011;66155;46.204;5.220;2023-06-14T00:54:06;4.80;;;3.47;;
48873;SDS011;66155;46.204;5.220;2023-06-14T00:59:06;4.75;;;3.50;;
48873;SDS011;66155;46.204;5.220;2023-06-14T01:04:07;6.43;;;3.60;;
48873;SDS011;66155;46.204;5.220;2023-06-14T01:14:52;3.90;;;2.92;;
48873;SDS011;66155;46.204;5.220;2023-06-14T01:19:54;5.75;;;3.40;;
48873;SDS011;66155;46.204;5.220;2023-06-14T01:24:58;7.13;;;3.30;;
48873;SDS011;66155;46.204;5.220;2023-06-14T01:29:58;4.32;;;3.00;;
48873;SDS011;66155;46.204;5.220;2023-06-14T01:34:59;5.65;;;3.40;;
48873;SDS011;66155;46.204;5.220;2023-06-14T01:40:00;5.40;;;3.45;;
48873;SDS011;66155;46.204;5.220;2023-06-14T01:45:02;4.53;;;3.47;;
48873;SDS011;66155;46.204;5.220;2023-06-14T01:50:03;5.25;;;3.08;;
48873;SDS011;66155;46.204;5.220;2023-06-14T01:55:07;4.20;;;3.17;;
48873;SDS011;66155;46.204;5.220;2023-06-14T02:00:09;4.78;;;3.75;;
48873;SDS011;66155;46.204;5.220;2023-06-14T02:05:12;6.32;;;3.33;;
48873;SDS011;66155;46.204;5.220;2023-06-14T02:10:13;4.47;;;3.17;;
48873;SDS011;66155;46.204;5.220;2023-06-14T02:15:15;9.00;;;3.30;;
48873;SDS011;66155;46.204;5.220;2023-06-14T02:20:19;7.28;;;3.80;;
48873;SDS011;66155;46.204;5.220;2023-06-14T02:25:20;4.80;;;3.53;;
48873;SDS011;66155;46.204;5.220;2023-06-14T02:30:20;4.97;;;3.33;;
48873;SDS011;66155;46.204;5.220;2023-06-14T02:35:21;5.38;;;3.58;;
48873;SDS011;66155;46.204;5.220;2023-06-14T02:40:24;4.68;;;3.35;;
48873;SDS011;66155;46.204;5.220;2023-06-14T02:45:25;5.25;;;3.40;;
48873;SDS011;66155;46.204;5.220;2023-06-14T02:50:25;5.13;;;3.43;;
48873;SDS011;66155;46.204;5.220;2023-06-14T02:55:25;6.22;;;3.20;;
48873;SDS011;66155;46.204;5.220;2023-06-14T03:00:26;6.47;;;3.90;;
48873;SDS011;66155;46.204;5.220;2023-06-14T03:05:30;5.07;;;3.10;;
48873;SDS011;66155;46.204;5.220;2023-06-14T03:10:30;5.22;;;3.28;;
48873;SDS011;66155;46.204;5.220;2023-06-14T03:15:30;6.63;;;3.30;;
48873;SDS011;66155;46.204;5.220;2023-06-14T03:20:31;4.25;;;3.30;;
48873;SDS011;66155;46.204;5.220;2023-06-14T03:25:33;4.90;;;3.30;;
48873;SDS011;66155;46.204;5.220;2023-06-14T03:30:35;4.40;;;3.53;;
48873;SDS011;66155;46.204;5.220;2023-06-14T03:35:35;5.40;;;3.47;;
48873;SDS011;66155;46.204;5.220;2023-06-14T03:40:36;6.75;;;3.60;;
48873;SDS011;66155;46.204;5.220;2023-06-14T03:45:36;4.80;;;3.33;;
48873;SDS011;66155;46.204;5.220;2023-06-14T03:50:37;4.00;;;2.90;;
48873;SDS011;66155;46.204;5.220;2023-06-14T03:55:38;4.65;;;3.10;;
48873;SDS011;66155;46.204;5.220;2023-06-14T04:00:39;4.55;;;3.65;;
48873;SDS011;66155;46.204;5.220;2023-06-14T04:05:40;4.82;;;3.15;;
48873;SDS011;66155;46.204;5.220;2023-06-14T04:10:45;5.38;;;3.45;;
48873;SDS011;66155;46.204;5.220;2023-06-14T04:15:45;4.60;;;3.60;;
48873;SDS011;66155;46.204;5.220;2023-06-14T04:20:45;3.90;;;3.47;;
48873;SDS011;66155;46.204;5.220;2023-06-14T04:25:46;5.18;;;3.55;;
48873;SDS011;66155;46.204;5.220;2023-06-14T04:30:47;5.65;;;3.40;;
48873;SDS011;66155;46.204;5.220;2023-06-14T04:35:47;7.70;;;3.42;;
48873;SDS011;66155;46.204;5.220;2023-06-14T04:40:48;4.55;;;2.92;;
48873;SDS011;66155;46.204;5.220;2023-06-14T04:45:49;4.80;;;3.43;;
48873;SDS011;66155;46.204;5.220;2023-06-14T04:50:49;8.07;;;3.13;;
48873;SDS011;66155;46.204;5.220;2023-06-14T04:55:52;4.00;;;3.40;;
48873;SDS011;66155;46.204;5.220;2023-06-14T05:00:53;8.20;;;3.50;;
48873;SDS011;66155;46.204;5.220;2023-06-14T05:05:53;7.80;;;3.00;;
48873;SDS011;66155;46.204;5.220;2023-06-14T05:10:54;7.70;;;4.50;;
48873;SDS011;66155;46.204;5.220;2023-06-14T05:15:54;6.53;;;4.80;;
48873;SDS011;66155;46.204;5.220;2023-06-14T05:20:54;5.00;;;3.78;;
48873;SDS011;66155;46.204;5.220;2023-06-14T05:25:55;8.70;;;3.92;;
48873;SDS011;66155;46.204;5.220;2023-06-14T05:30:56;7.72;;;3.97;;
48873;SDS011;66155;46.204;5.220;2023-06-14T05:35:58;5.85;;;3.63;;
48873;SDS011;66155;46.204;5.220;2023-06-14T05:40:58;4.70;;;3.38;;
48873;SDS011;66155;46.204;5.220;2023-06-14T05:45:59;4.53;;;3.25;;
48873;SDS011;66155;46.204;5.220;2023-06-14T05:51:00;5.85;;;2.97;;
48873;SDS011;66155;46.204;5.220;2023-06-14T05:56:00;6.72;;;3.17;;
48873;SDS011;66155;46.204;5.220;2023-06-14T06:01:01;7.63;;;4.40;;
48873;SDS011;66155;46.204;5.220;2023-06-14T06:06:02;6.18;;;3.58;;
48873;SDS011;66155;46.204;5.220;2023-06-14T06:11:03;7.15;;;4.15;;
48873;SDS011;66155;46.204;5.220;2023-06-14T06:16:03;9.57;;;4.60;;
48873;SDS011;66155;46.204;5.220;2023-06-14T06:21:05;6.47;;;4.05;;
48873;SDS011;66155;46.204;5.220;2023-06-14T06:26:06;6.80;;;3.80;;
48873;SDS011;66155;46.204;5.220;2023-06-14T06:31:07;5.80;;;3.15;;
48873;SDS011;66155;46.204;5.220;2023-06-14T06:36:07;3.83;;;2.95;;
48873;SDS011;66155;46.204;5.220;2023-06-14T06:41:08;4.50;;;2.80;;
48873;SDS011;66155;46.204;5.220;2023-06-14T06:46:08;4.72;;;3.22;;
48873;SDS011;66155;46.204;5.220;2023-06-14T06:51:09;7.47;;;3.63;;
48873;SDS011;66155;46.204;5.220;2023-06-14T06:56:09;9.10;;;3.60;;
48873;SDS011;66155;46.204;5.220;2023-06-14T07:01:10;5.00;;;3.38;;
48873;SDS011;66155;46.204;5.220;2023-06-14T07:06:11;6.65;;;4.95;;
48873;SDS011;66155;46.204;5.220;2023-06-14T07:11:12;5.95;;;4.22;;
48873;SDS011;66155;46.204;5.220;2023-06-14T07:16:13;6.13;;;3.50;;
48873;SDS011;66155;46.204;5.220;2023-06-14T07:21:14;7.03;;;3.80;;
48873;SDS011;66155;46.204;5.220;2023-06-14T07:26:14;7.87;;;5.47;;
48873;SDS011;66155;46.204;5.220;2023-06-14T07:31:15;4.22;;;3.08;;
48873;SDS011;66155;46.204;5.220;2023-06-14T07:36:16;6.78;;;3.55;;
48873;SDS011;66155;46.204;5.220;2023-06-14T07:41:17;8.50;;;3.83;;
48873;SDS011;66155;46.204;5.220;2023-06-14T07:46:18;9.18;;;5.60;;
48873;SDS011;66155;46.204;5.220;2023-06-14T07:51:18;7.82;;;4.13;;
48873;SDS011;66155;46.204;5.220;2023-06-14T07:56:19;6.27;;;3.73;;
48873;SDS011;66155;46.204;5.220;2023-06-14T08:01:19;7.22;;;4.03;;
48873;SDS011;66155;46.204;5.220;2023-06-14T08:06:20;6.95;;;4.80;;
48873;SDS011;66155;46.204;5.220;2023-06-14T08:11:20;5.70;;;4.72;;
48873;SDS011;66155;46.204;5.220;2023-06-14T08:16:21;5.95;;;4.07;;
48873;SDS011;66155;46.204;5.220;2023-06-14T08:21:21;6.50;;;3.95;;
48873;SDS011;66155;46.204;5.220;2023-06-14T08:26:22;6.97;;;4.50;;
48873;SDS011;66155;46.204;5.220;2023-06-14T08:31:22;7.40;;;4.53;;
48873;SDS011;66155;46.204;5.220;2023-06-14T08:36:24;5.80;;;4.57;;
48873;SDS011;66155;46.204;5.220;2023-06-14T08:41:24;5.38;;;4.22;;
48873;SDS011;66155;46.204;5.220;2023-06-14T08:46:26;5.47;;;4.10;;
48873;SDS011;66155;46.204;5.220;2023-06-14T08:51:30;4.35;;;3.67;;
48873;SDS011;66155;46.204;5.220;2023-06-14T08:56:34;5.93;;;4.20;;
48873;SDS011;66155;46.204;5.220;2023-06-14T09:01:37;5.82;;;4.10;;
48873;SDS011;66155;46.204;5.220;2023-06-14T09:06:38;10.80;;;4.70;;
48873;SDS011;66155;46.204;5.220;2023-06-14T09:11:41;6.57;;;4.50;;
48873;SDS011;66155;46.204;5.220;2023-06-14T09:16:42;6.03;;;3.83;;
48873;SDS011;66155;46.204;5.220;2023-06-14T09:21:43;5.13;;;3.60;;
48873;SDS011;66155;46.204;5.220;2023-06-14T09:26:47;5.07;;;3.80;;
48873;SDS011;66155;46.204;5.220;2023-06-14T09:31:48;5.53;;;3.80;;
48873;SDS011;66155;46.204;5.220;2023-06-14T09:36:48;9.57;;;4.53;;
48873;SDS011;66155;46.204;5.220;2023-06-14T09:41:49;5.63;;;3.88;;
48873;SDS011;66155;46.204;5.220;2023-06-14T09:46:49;8.40;;;4.65;;
48873;SDS011;66155;46.204;5.220;2023-06-14T09:51:51;5.45;;;4.10;;
48873;SDS011;66155;46.204;5.220;2023-06-14T09:56:53;5.53;;;4.10;;
48873;SDS011;66155;46.204;5.220;2023-06-14T10:01:54;5.20;;;4.00;;
48873;SDS011;66155;46.204;5.220;2023-06-14T10:06:58;10.30;;;4.97;;
48873;SDS011;66155;46.204;5.220;2023-06-14T10:12:04;5.72;;;4.82;;
48873;SDS011;66155;46.204;5.220;2023-06-14T10:17:07;6.80;;;5.15;;
48873;SDS011;66155;46.204;5.220;2023-06-14T10:22:14;6.75;;;5.10;;
48873;SDS011;66155;46.204;5.220;2023-06-14T10:27:19;6.30;;;4.43;;
48873;SDS011;66155;46.204;5.220;2023-06-14T10:32:24;5.53;;;5.00;;
48873;SDS011;66155;46.204;5.220;2023-06-14T10:37:25;4.72;;;3.75;;
48873;SDS011;66155;46.204;5.220;2023-06-14T10:42:32;4.80;;;3.97;;
48873;SDS011;66155;46.204;5.220;2023-06-14T10:47:36;5.20;;;4.30;;
48873;SDS011;66155;46.204;5.220;2023-06-14T10:57:40;6.80;;;4.55;;
48873;SDS011;66155;46.204;5.220;2023-06-14T11:08:01;6.82;;;4.03;;
48873;SDS011;66155;46.204;5.220;2023-06-14T11:13:16;5.22;;;4.72;;
48873;SDS011;66155;46.204;5.220;2023-06-14T11:18:16;5.43;;;3.80;;
48873;SDS011;66155;46.204;5.220;2023-06-14T11:23:17;6.57;;;4.18;;
48873;SDS011;66155;46.204;5.220;2023-06-14T11:28:17;5.13;;;4.43;;
48873;SDS011;66155;46.204;5.220;2023-06-14T11:33:19;5.30;;;4.80;;
48873;SDS011;66155;46.204;5.220;2023-06-14T11:38:22;6.28;;;4.35;;
48873;SDS011;66155;46.204;5.220;2023-06-14T11:43:23;5.00;;;4.28;;
48873;SDS011;66155;46.204;5.220;2023-06-14T11:48:40;5.63;;;4.30;;
48873;SDS011;66155;46.204;5.220;2023-06-14T11:53:42;4.80;;;4.40;;
48873;SDS011;66155;46.204;5.220;2023-06-14T11:58:43;4.95;;;4.28;;
48873;SDS011;66155;46.204;5.220;2023-06-14T12:03:47;4.25;;;3.85;;
48873;SDS011;66155;46.204;5.220;2023-06-14T12:08:51;6.15;;;4.50;;
48873;SDS011;66155;46.204;5.220;2023-06-14T12:13:52;5.90;;;4.22;;
48873;SDS011;66155;46.204;5.220;2023-06-14T12:18:52;5.37;;;4.80;;
48873;SDS011;66155;46.204;5.220;2023-06-14T12:23:53;5.85;;;4.65;;
48873;SDS011;66155;46.204;5.220;2023-06-14T12:28:53;7.30;;;4.37;;
48873;SDS011;66155;46.204;5.220;2023-06-14T12:33:54;5.63;;;3.67;;
48873;SDS011;66155;46.204;5.220;2023-06-14T12:38:54;4.53;;;4.13;;
48873;SDS011;66155;46.204;5.220;2023-06-14T12:43:55;4.72;;;4.00;;
48873;SDS011;66155;46.204;5.220;2023-06-14T12:48:55;6.07;;;4.13;;
48873;SDS011;66155;46.204;5.220;2023-06-14T12:53:56;5.07;;;4.10;;
48873;SDS011;66155;46.204;5.220;2023-06-14T12:58:56;4.97;;;3.78;;
48873;SDS011;66155;46.204;5.220;2023-06-14T13:03:58;5.25;;;4.47;;
48873;SDS011;66155;46.204;5.220;2023-06-14T13:08:58;5.37;;;3.53;;
48873;SDS011;66155;46.204;5.220;2023-06-14T13:13:59;4.50;;;4.10;;
48873;SDS011;66155;46.204;5.220;2023-06-14T13:18:59;4.73;;;3.77;;
48873;SDS011;66155;46.204;5.220;2023-06-14T13:24:00;4.72;;;4.32;;
48873;SDS011;66155;46.204;5.220;2023-06-14T13:29:00;4.88;;;3.97;;
48873;SDS011;66155;46.204;5.220;2023-06-14T13:34:01;5.40;;;4.22;;
48873;SDS011;66155;46.204;5.220;2023-06-14T13:39:01;5.63;;;5.13;;
48873;SDS011;66155;46.204;5.220;2023-06-14T13:44:02;5.53;;;4.10;;
48873;SDS011;66155;46.204;5.220;2023-06-14T13:49:05;4.63;;;3.88;;
48873;SDS011;66155;46.204;5.220;2023-06-14T13:54:06;5.10;;;4.60;;
48873;SDS011;66155;46.204;5.220;2023-06-14T13:59:06;5.13;;;3.97;;
48873;SDS011;66155;46.204;5.220;2023-06-14T14:04:07;5.00;;;4.10;;
48873;SDS011;66155;46.204;5.220;2023-06-14T14:09:07;4.82;;;4.05;;
48873;SDS011;66155;46.204;5.220;2023-06-14T14:14:08;4.75;;;4.32;;
48873;SDS011;66155;46.204;5.220;2023-06-14T14:19:09;4.97;;;4.57;;
48873;SDS011;66155;46.204;5.220;2023-06-14T14:24:09;6.38;;;4.25;;
48873;SDS011;66155;46.204;5.220;2023-06-14T14:29:10;5.05;;;3.60;;
48873;SDS011;66155;46.204;5.220;2023-06-14T14:34:11;4.72;;;4.32;;
48873;SDS011;66155;46.204;5.220;2023-06-14T14:39:12;5.47;;;3.50;;
48873;SDS011;66155;46.204;5.220;2023-06-14T14:44:12;5.30;;;3.80;;
48873;SDS011;66155;46.204;5.220;2023-06-14T14:49:13;4.30;;;3.90;;
48873;SDS011;66155;46.204;5.220;2023-06-14T14:54:13;5.03;;;4.35;;
48873;SDS011;66155;46.204;5.220;2023-06-14T14:59:14;5.37;;;4.07;;
48873;SDS011;66155;46.204;5.220;2023-06-14T15:04:14;5.53;;;4.30;;
48873;SDS011;66155;46.204;5.220;2023-06-14T15:09:15;5.70;;;4.03;;
48873;SDS011;66155;46.204;5.220;2023-06-14T15:14:15;7.78;;;3.92;;
48873;SDS011;66155;46.204;5.220;2023-06-14T15:19:17;6.50;;;4.30;;
48873;SDS011;66155;46.204;5.220;2023-06-14T15:24:18;4.13;;;3.38;;
48873;SDS011;66155;46.204;5.220;2023-06-14T15:29:18;4.45;;;3.88;;
48873;SDS011;66155;46.204;5.220;2023-06-14T15:34:19;4.40;;;4.00;;
48873;SDS011;66155;46.204;5.220;2023-06-14T15:39:19;3.90;;;3.60;;
48873;SDS011;66155;46.204;5.220;2023-06-14T15:44:20;5.78;;;3.90;;
48873;SDS011;66155;46.204;5.220;2023-06-14T15:49:20;8.00;;;3.77;;
48873;SDS011;66155;46.204;5.220;2023-06-14T15:54:21;3.77;;;3.40;;
48873;SDS011;66155;46.204;5.220;2023-06-14T15:59:21;4.67;;;4.27;;
48873;SDS011;66155;46.204;5.220;2023-06-14T16:04:21;4.40;;;4.00;;
48873;SDS011;66155;46.204;5.220;2023-06-14T16:09:22;4.30;;;3.90;;
48873;SDS011;66155;46.204;5.220;2023-06-14T16:14:23;4.93;;;4.43;;
48873;SDS011;66155;46.204;5.220;2023-06-14T16:19:23;7.30;;;5.87;;
48873;SDS011;66155;46.204;5.220;2023-06-14T16:24:24;5.63;;;5.13;;
48873;SDS011;66155;46.204;5.220;2023-06-14T16:29:24;4.70;;;4.20;;
48873;SDS011;66155;46.204;5.220;2023-06-14T16:34:24;4.57;;;4.17;;
48873;SDS011;66155;46.204;5.220;2023-06-14T16:39:25;6.18;;;4.85;;
48873;SDS011;66155;46.204;5.220;2023-06-14T16:44:26;5.75;;;5.35;;
48873;SDS011;66155;46.204;5.220;2023-06-14T16:49:26;6.63;;;5.20;;
48873;SDS011;66155;46.204;5.220;2023-06-14T16:54:27;6.83;;;4.73;;
48873;SDS011;66155;46.204;5.220;2023-06-14T16:59:27;6.50;;;4.80;;
48873;SDS011;66155;46.204;5.220;2023-06-14T17:04:27;7.03;;;4.80;;
48873;SDS011;66155;46.204;5.220;2023-06-14T17:09:28;5.82;;;5.30;;
48873;SDS011;66155;46.204;5.220;2023-06-14T17:14:29;5.40;;;4.72;;
48873;SDS011;66155;46.204;5.220;2023-06-14T17:19:29;4.90;;;4.40;;
48873;SDS011;66155;46.204;5.220;2023-06-14T17:24:30;4.40;;;4.00;;
48873;SDS011;66155;46.204;5.220;2023-06-14T17:29:30;5.70;;;4.80;;
48873;SDS011;66155;46.204;5.220;2023-06-14T17:34:30;6.70;;;4.30;;
48873;SDS011;66155;46.204;5.220;2023-06-14T17:39:31;11.88;;;4.70;;
48873;SDS011;66155;46.204;5.220;2023-06-14T17:44:31;5.67;;;5.17;;
48873;SDS011;66155;46.204;5.220;2023-06-14T17:49:32;5.43;;;4.13;;
48873;SDS011;66155;46.204;5.220;2023-06-14T17:54:32;7.10;;;6.60;;
48873;SDS011;66155;46.204;5.220;2023-06-14T17:59:33;5.20;;;4.68;;
48873;SDS011;66155;46.204;5.220;2023-06-14T18:04:33;7.97;;;7.17;;
48873;SDS011;66155;46.204;5.220;2023-06-14T18:09:34;6.70;;;4.82;;
48873;SDS011;66155;46.204;5.220;2023-06-14T18:14:34;5.57;;;5.07;;
48873;SDS011;66155;46.204;5.220;2023-06-14T18:19:35;6.53;;;4.30;;
48873;SDS011;66155;46.204;5.220;2023-06-14T18:24:36;5.35;;;4.82;;
48873;SDS011;66155;46.204;5.220;2023-06-14T18:29:37;7.00;;;4.37;;
48873;SDS011;66155;46.204;5.220;2023-06-14T18:34:37;5.93;;;5.30;;
48873;SDS011;66155;46.204;5.220;2023-06-14T18:39:37;8.77;;;4.77;;
48873;SDS011;66155;46.204;5.220;2023-06-14T18:44:38;7.67;;;5.20;;
48873;SDS011;66155;46.204;5.220;2023-06-14T18:49:39;5.67;;;5.17;;
48873;SDS011;66155;46.204;5.220;2023-06-14T18:54:39;7.50;;;6.95;;
48873;SDS011;66155;46.204;5.220;2023-06-14T18:59:40;9.20;;;5.30;;
48873;SDS011;66155;46.204;5.220;2023-06-14T19:04:40;5.20;;;4.70;;
48873;SDS011;66155;46.204;5.220;2023-06-14T19:09:41;8.00;;;6.60;;
48873;SDS011;66155;46.204;5.220;2023-06-14T19:14:41;6.87;;;5.00;;
48873;SDS011;66155;46.204;5.220;2023-06-14T19:19:41;6.30;;;4.60;;
48873;SDS011;66155;46.204;5.220;2023-06-14T19:24:44;5.18;;;4.65;;
48873;SDS011;66155;46.204;5.220;2023-06-14T19:29:44;5.50;;;4.83;;
48873;SDS011;66155;46.204;5.220;2023-06-14T19:34:44;5.60;;;5.10;;
48873;SDS011;66155;46.204;5.220;2023-06-14T19:39:45;5.32;;;4.82;;
48873;SDS011;66155;46.204;5.220;2023-06-14T19:44:45;6.18;;;4.93;;
48873;SDS011;66155;46.204;5.220;2023-06-14T19:49:46;5.93;;;4.67;;
48873;SDS011;66155;46.204;5.220;2023-06-14T19:54:46;5.90;;;5.20;;
48873;SDS011;66155;46.204;5.220;2023-06-14T19:59:47;6.72;;;4.53;;
48873;SDS011;66155;46.204;5.220;2023-06-14T20:04:47;6.80;;;4.47;;
48873;SDS011;66155;46.204;5.220;2023-06-14T20:09:48;4.55;;;4.15;;
48873;SDS011;66155;46.204;5.220;2023-06-14T20:14:48;5.57;;;3.93;;
48873;SDS011;66155;46.204;5.220;2023-06-14T20:19:49;6.95;;;4.57;;
48873;SDS011;66155;46.204;5.220;2023-06-14T20:24:50;8.18;;;4.63;;
48873;SDS011;66155;46.204;5.220;2023-06-14T20:29:51;6.05;;;4.90;;
48873;SDS011;66155;46.204;5.220;2023-06-14T20:34:53;6.72;;;5.07;;
48873;SDS011;66155;46.204;5.220;2023-06-14T20:39:54;7.90;;;5.40;;
48873;SDS011;66155;46.204;5.220;2023-06-14T20:45:05;7.28;;;4.28;;
48873;SDS011;66155;46.204;5.220;2023-06-14T20:50:06;7.95;;;4.32;;
48873;SDS011;66155;46.204;5.220;2023-06-14T20:55:08;5.38;;;4.10;;
48873;SDS011;66155;46.204;5.220;2023-06-14T21:00:08;6.18;;;4.30;;
48873;SDS011;66155;46.204;5.220;2023-06-14T21:05:13;5.43;;;4.50;;
48873;SDS011;66155;46.204;5.220;2023-06-14T21:10:13;6.93;;;4.80;;
48873;SDS011;66155;46.204;5.220;2023-06-14T21:15:14;5.88;;;4.90;;
48873;SDS011;66155;46.204;5.220;2023-06-14T21:20:14;6.63;;;4.85;;
48873;SDS011;66155;46.204;5.220;2023-06-14T21:25:15;6.27;;;4.90;;
48873;SDS011;66155;46.204;5.220;2023-06-14T21:30:20;5.82;;;4.82;;
48873;SDS011;66155;46.204;5.220;2023-06-14T21:35:32;5.35;;;4.85;;
48873;SDS011;66155;46.204;5.220;2023-06-14T21:40:32;10.88;;;5.07;;
48873;SDS011;66155;46.204;5.220;2023-06-14T21:45:33;11.75;;;5.13;;
48873;SDS011;66155;46.204;5.220;2023-06-14T21:50:33;6.37;;;4.83;;
48873;SDS011;66155;46.204;5.220;2023-06-14T21:55:34;6.50;;;4.43;;
48873;SDS011;66155;46.204;5.220;2023-06-14T22:00:34;8.68;;;4.40;;
48873;SDS011;66155;46.204;5.220;2023-06-14T22:05:34;7.00;;;4.83;;
48873;SDS011;66155;46.204;5.220;2023-06-14T22:10:35;5.60;;;4.63;;
48873;SDS011;66155;46.204;5.220;2023-06-14T22:15:37;5.45;;;4.50;;
48873;SDS011;66155;46.204;5.220;2023-06-14T22:20:37;7.83;;;4.23;;
48873;SDS011;66155;46.204;5.220;2023-06-14T22:25:38;7.53;;;4.45;;
48873;SDS011;66155;46.204;5.220;2023-06-14T22:30:42;6.18;;;4.20;;
48873;SDS011;66155;46.204;5.220;2023-06-14T22:35:44;5.10;;;3.70;;
48873;SDS011;66155;46.204;5.220;2023-06-14T22:40:44;6.47;;;4.13;;
48873;SDS011;66155;46.204;5.220;2023-06-14T22:45:45;9.95;;;4.22;;
48873;SDS011;66155;46.204;5.220;2023-06-14T22:50:47;6.60;;;4.15;;
48873;SDS011;66155;46.204;5.220;2023-06-14T22:55:48;6.57;;;4.03;;
48873;SDS011;66155;46.204;5.220;2023-06-14T23:00:48;6.67;;;4.33;;
48873;SDS011;66155;46.204;5.220;2023-06-14T23:05:48;5.40;;;4.00;;
48873;SDS011;66155;46.204;5.220;2023-06-14T23:10:49;7.50;;;4.17;;
48873;SDS011;66155;46.204;5.220;2023-06-14T23:15:49;6.20;;;4.10;;
48873;SDS011;66155;46.204;5.220;2023-06-14T23:20:50;6.47;;;4.50;;
48873;SDS011;66155;46.204;5.220;2023-06-14T23:25:51;7.55;;;4.53;;
48873;SDS011;66155;46.204;5.220;2023-06-14T23:30:54;6.68;;;4.63;;
48873;SDS011;66155;46.204;5.220;2023-06-14T23:35:56;7.15;;;4.15;;
48873;SDS011;66155;46.204;5.220;2023-06-14T23:41:01;6.72;;;4.43;;
48873;SDS011;66155;46.204;5.220;2023-06-14T23:46:01;6.53;;;4.93;;
48873;SDS011;66155;46.204;5.220;2023-06-14T23:51:03;8.40;;;4.20;;
48873;SDS011;66155;46.204;5.220;2023-06-14T23:56:04;7.82;;;4.47;;
